Time;durP1;ratioP1;P1;durP2;ratioP2;P2;SDS_P1;SDS_P2;PMS_P1;PMS_P2;Temp;Humidity;BMP_temperature;BMP_pressure;BME280_temperature;BME280_humidity;BME280_pressure;Samples;Min_cycle;Max_cycle;Signal;HPM_P1;HPM_P2
2022/10/20 00:00:25;;;;;;;14.70;11.70;;;11.40;99.90;;;;;;4844047;29;20218;-85
2022/10/20 00:02:51;;;;;;;16.37;11.87;;;11.40;99.90;;;;;;4843890;29;20398;-86
2022/10/20 00:05:17;;;;;;;14.07;9.87;;;11.40;99.90;;;;;;4843447;29;20189;-86
2022/10/20 00:07:43;;;;;;;17.33;11.07;;;11.30;99.90;;;;;;4859217;29;20184;-85
2022/10/20 00:10:09;;;;;;;13.80;10.93;;;11.10;99.90;;;;;;4825803;29;20239;-85
2022/10/20 00:12:35;;;;;;;24.27;12.30;;;10.90;99.90;;;;;;4846021;29;20234;-85
2022/10/20 00:15:01;;;;;;;17.20;12.73;;;10.80;99.90;;;;;;4862115;29;20254;-86
2022/10/20 00:17:26;;;;;;;18.90;13.73;;;10.60;99.90;;;;;;4873032;29;20185;-85
2022/10/20 00:19:52;;;;;;;15.07;11.77;;;10.70;99.90;;;;;;4863055;29;20303;-86
2022/10/20 00:22:18;;;;;;;16.73;12.03;;;10.70;99.90;;;;;;4862764;29;20605;-86
2022/10/20 00:24:44;;;;;;;14.27;11.63;;;10.70;99.90;;;;;;4862765;29;20217;-86
2022/10/20 00:27:10;;;;;;;19.00;12.90;;;10.70;99.90;;;;;;4862723;29;20188;-86
2022/10/20 00:29:36;;;;;;;15.43;13.47;;;10.80;99.90;;;;;;4862775;29;20201;-86
2022/10/20 00:32:02;;;;;;;16.63;12.83;;;10.80;99.90;;;;;;4862731;29;20214;-85
2022/10/20 00:34:28;;;;;;;18.53;12.97;;;10.80;99.90;;;;;;4862537;29;20678;-85
2022/10/20 00:36:53;;;;;;;17.07;12.73;;;10.90;99.90;;;;;;4862217;29;20211;-86
2022/10/20 00:39:19;;;;;;;15.40;12.00;;;11.00;99.90;;;;;;4862351;29;20214;-85
2022/10/20 00:41:52;;;;;;;21.10;13.80;;;11.00;99.90;;;;;;4846548;29;20185;-85
2022/10/20 00:45:04;;;;;;;29.57;14.93;;;11.00;99.90;;;;;;4862293;29;20181;-85
2022/10/20 00:47:40;;;;;;;23.53;15.90;;;10.90;99.90;;;;;;4862503;29;20180;-85
2022/10/20 00:50:21;;;;;;;21.07;15.40;;;11.00;99.90;;;;;;4847371;29;20257;-85
2022/10/20 00:52:48;;;;;;;20.20;15.30;;;11.00;99.90;;;;;;4877586;29;20228;-85
2022/10/20 00:55:18;;;;;;;19.17;13.87;;;11.10;99.90;;;;;;4847070;29;20218;-86
2022/10/20 00:57:48;;;;;;;17.50;13.63;;;11.10;99.90;;;;;;4846430;29;20185;-85
2022/10/20 01:00:15;;;;;;;18.03;13.93;;;11.10;99.90;;;;;;4846941;29;20235;-86
2022/10/20 01:02:41;;;;;;;20.07;14.40;;;11.10;99.90;;;;;;4876901;29;20210;-85
2022/10/20 01:05:07;;;;;;;15.80;11.83;;;11.10;99.90;;;;;;4865165;29;20180;-86
2022/10/20 01:07:33;;;;;;;15.93;11.17;;;11.10;99.90;;;;;;4864989;29;20185;-85
2022/10/20 01:10:01;;;;;;;15.67;11.07;;;11.10;99.90;;;;;;4863382;29;20187;-85
2022/10/20 01:12:29;;;;;;;14.63;11.63;;;11.00;99.90;;;;;;4873530;29;20212;-85
2022/10/20 01:14:58;;;;;;;17.07;11.67;;;11.00;99.90;;;;;;4865071;29;20183;-85
2022/10/20 01:17:42;;;;;;;15.60;12.13;;;11.00;99.90;;;;;;4850918;29;20193;-85
2022/10/20 01:20:37;;;;;;;18.37;12.47;;;10.90;99.90;;;;;;4873069;29;20280;-85
2022/10/20 01:23:41;;;;;;;26.57;14.30;;;10.90;99.90;;;;;;4848937;29;20217;-85
2022/10/20 01:26:09;;;;;;;22.90;13.83;;;10.80;99.90;;;;;;4828149;29;20207;-85
2022/10/20 01:29:07;;;;;;;24.97;13.67;;;10.80;99.90;;;;;;4843203;29;20272;-85
2022/10/20 01:31:43;;;;;;;24.80;14.20;;;10.80;99.90;;;;;;4842477;29;20193;-86
2022/10/20 01:34:51;;;;;;;19.27;13.80;;;10.70;99.90;;;;;;4827751;29;20221;-85
2022/10/20 01:37:38;;;;;;;18.83;13.57;;;10.80;99.90;;;;;;4838452;29;20224;-86
2022/10/20 01:40:16;;;;;;;24.80;14.53;;;10.80;99.90;;;;;;4842500;29;20302;-85
2022/10/20 01:42:46;;;;;;;49.63;16.13;;;10.90;99.90;;;;;;4843106;29;20228;-86
2022/10/20 01:45:16;;;;;;;17.63;13.60;;;10.90;99.90;;;;;;4843297;29;20181;-85
2022/10/20 01:47:44;;;;;;;21.30;13.60;;;10.90;99.90;;;;;;4842637;29;20271;-86
2022/10/20 01:50:11;;;;;;;21.60;14.10;;;10.90;99.90;;;;;;4842883;29;20202;-85
2022/10/20 01:52:37;;;;;;;48.90;15.33;;;10.90;99.90;;;;;;4842792;29;20201;-86
2022/10/20 01:55:14;;;;;;;63.13;16.07;;;10.90;99.90;;;;;;4842660;29;20196;-85
2022/10/20 01:57:40;;;;;;;19.33;14.53;;;10.90;99.90;;;;;;4842594;29;20663;-85
2022/10/20 02:00:07;;;;;;;19.90;13.73;;;10.90;99.90;;;;;;4842502;29;20211;-85
2022/10/20 02:02:42;;;;;;;29.47;13.27;;;10.90;99.90;;;;;;4850407;29;20211;-86
2022/10/20 02:05:29;;;;;;;28.87;14.03;;;10.90;99.90;;;;;;4861391;29;20183;-85
2022/10/20 02:08:06;;;;;;;42.37;13.97;;;10.90;99.90;;;;;;4869669;29;20190;-85
2022/10/20 02:10:43;;;;;;;16.60;12.30;;;11.00;99.90;;;;;;4845751;29;20188;-85
2022/10/20 02:13:11;;;;;;;42.70;13.30;;;11.00;99.90;;;;;;4845383;29;20293;-85
2022/10/20 02:15:42;;;;;;;26.03;13.20;;;11.00;99.90;;;;;;4845615;29;20276;-86
2022/10/20 02:18:10;;;;;;;29.63;12.97;;;11.00;99.90;;;;;;4854390;29;20188;-86
2022/10/20 02:20:36;;;;;;;50.77;12.70;;;11.00;99.90;;;;;;4878701;29;20300;-86
2022/10/20 02:23:04;;;;;;;19.57;11.47;;;11.00;99.90;;;;;;4864197;29;20248;-85
2022/10/20 02:25:32;;;;;;;26.57;10.20;;;11.00;99.90;;;;;;4863857;29;20189;-86
2022/10/20 02:27:59;;;;;;;12.13;10.93;;;10.90;99.90;;;;;;4863418;29;20211;-85
2022/10/20 02:30:25;;;;;;;14.03;10.87;;;10.90;99.90;;;;;;4864036;29;20197;-86
2022/10/20 02:32:52;;;;;;;33.83;12.73;;;10.90;99.90;;;;;;4879189;29;20220;-85
2022/10/20 02:35:25;;;;;;;17.93;12.33;;;10.90;99.90;;;;;;4863495;29;20196;-85
2022/10/20 02:37:51;;;;;;;16.13;11.13;;;11.00;99.90;;;;;;4862536;29;20184;-86
2022/10/20 02:40:17;;;;;;;15.60;11.57;;;10.90;99.90;;;;;;4844932;29;20213;-85
2022/10/20 02:42:43;;;;;;;16.73;12.37;;;10.90;99.90;;;;;;4844892;29;20261;-86
2022/10/20 02:45:09;;;;;;;14.77;11.10;;;10.90;99.90;;;;;;4844985;29;20185;-85
2022/10/20 02:47:35;;;;;;;15.73;11.70;;;10.90;99.90;;;;;;4859786;29;20189;-86
2022/10/20 02:50:01;;;;;;;16.17;11.77;;;10.90;99.90;;;;;;4875324;29;20252;-85
2022/10/20 02:52:27;;;;;;;18.93;11.23;;;10.90;99.90;;;;;;4844392;29;20205;-85
2022/10/20 02:54:53;;;;;;;21.67;11.97;;;10.90;99.90;;;;;;4844491;29;20250;-85
2022/10/20 02:57:19;;;;;;;14.77;11.13;;;10.90;99.90;;;;;;4844258;29;20192;-85
2022/10/20 02:59:45;;;;;;;16.80;12.03;;;10.90;99.90;;;;;;4844125;29;20216;-85
2022/10/20 03:02:11;;;;;;;23.07;12.50;;;10.90;99.90;;;;;;4844162;29;20291;-85
2022/10/20 03:04:37;;;;;;;17.23;11.17;;;10.80;99.90;;;;;;4844228;29;20190;-85
2022/10/20 03:07:03;;;;;;;20.03;12.60;;;10.80;99.90;;;;;;4859210;29;20222;-85
2022/10/20 03:09:29;;;;;;;18.67;11.77;;;10.70;99.90;;;;;;4844213;29;20196;-85
2022/10/20 03:11:55;;;;;;;23.40;12.50;;;10.60;99.90;;;;;;4844273;29;20206;-86
2022/10/20 03:14:20;;;;;;;28.43;12.67;;;10.60;99.90;;;;;;4859599;29;20194;-86
2022/10/20 03:16:46;;;;;;;24.17;13.10;;;10.60;99.90;;;;;;4859328;29;20198;-85
2022/10/20 03:19:12;;;;;;;33.70;13.33;;;10.50;99.90;;;;;;4843903;29;20193;-86
2022/10/20 03:21:38;;;;;;;31.77;12.97;;;10.50;99.90;;;;;;4843865;29;20216;-85
2022/10/20 03:24:04;;;;;;;24.23;13.30;;;10.50;99.90;;;;;;4843780;29;20214;-86
2022/10/20 03:26:30;;;;;;;24.83;14.10;;;10.50;99.90;;;;;;4843902;29;20192;-85
2022/10/20 03:28:56;;;;;;;19.37;13.00;;;10.50;99.90;;;;;;4843437;29;20185;-85
2022/10/20 03:31:22;;;;;;;16.53;12.30;;;10.60;99.90;;;;;;4844377;29;20186;-86
2022/10/20 03:33:47;;;;;;;18.60;12.13;;;10.60;99.90;;;;;;4861809;29;20216;-85
2022/10/20 03:36:13;;;;;;;15.37;12.87;;;10.60;99.90;;;;;;4862393;29;20195;-85
2022/10/20 03:38:42;;;;;;;14.83;11.57;;;10.60;99.90;;;;;;4877837;29;20191;-85
2022/10/20 03:41:11;;;;;;;19.13;12.20;;;10.60;99.90;;;;;;4846889;29;20310;-86
2022/10/20 03:43:40;;;;;;;28.10;12.97;;;10.60;99.90;;;;;;4877421;29;20207;-85
2022/10/20 03:46:30;;;;;;;22.10;12.07;;;10.60;99.90;;;;;;4852618;29;20196;-86
2022/10/20 03:49:00;;;;;;;14.60;12.27;;;10.60;99.90;;;;;;4825452;29;20201;-87
2022/10/20 03:51:33;;;;;;;17.00;13.20;;;10.60;99.90;;;;;;4826678;29;20189;-86
2022/10/20 03:54:14;;;;;;;19.60;12.50;;;10.70;99.90;;;;;;4844138;29;20165;-86
2022/10/20 03:56:51;;;;;;;13.93;12.00;;;10.70;99.90;;;;;;4858807;29;20250;-86
2022/10/20 03:59:18;;;;;;;14.90;12.17;;;10.70;99.90;;;;;;4844217;29;20181;-86
2022/10/20 04:01:45;;;;;;;18.27;12.77;;;10.70;99.90;;;;;;4827893;29;20183;-85
2022/10/20 04:04:11;;;;;;;17.17;12.93;;;10.70;99.90;;;;;;4842092;29;20176;-86
2022/10/20 04:06:37;;;;;;;15.80;12.57;;;10.70;99.90;;;;;;4847186;29;20701;-86
2022/10/20 04:09:52;;;;;;;13.80;12.03;;;10.70;99.90;;;;;;4846691;29;20200;-86
2022/10/20 04:12:18;;;;;;;14.73;12.13;;;10.70;99.90;;;;;;4847326;29;20230;-86
2022/10/20 04:14:44;;;;;;;15.90;12.03;;;10.70;99.90;;;;;;4847024;29;20222;-86
2022/10/20 04:17:10;;;;;;;15.23;12.27;;;10.70;99.90;;;;;;4877752;29;20190;-85
2022/10/20 04:19:36;;;;;;;14.67;12.53;;;10.70;99.90;;;;;;4846849;29;20226;-86
2022/10/20 04:22:02;;;;;;;15.70;12.37;;;10.70;99.90;;;;;;4846975;29;20301;-86
2022/10/20 04:24:27;;;;;;;14.47;12.37;;;10.60;99.90;;;;;;4847117;29;20196;-86
2022/10/20 04:26:54;;;;;;;14.30;12.00;;;10.60;99.90;;;;;;4846144;29;20180;-86
2022/10/20 04:29:20;;;;;;;16.83;13.23;;;10.60;99.90;;;;;;4862245;29;20238;-87
2022/10/20 04:31:46;;;;;;;15.67;12.70;;;10.60;99.90;;;;;;4862183;29;20186;-86
2022/10/20 04:34:12;;;;;;;16.93;12.57;;;10.60;99.90;;;;;;4862115;29;20196;-86
2022/10/20 04:36:39;;;;;;;15.80;12.50;;;10.60;99.90;;;;;;4862135;29;20181;-86
2022/10/20 04:39:05;;;;;;;14.67;12.83;;;10.60;99.90;;;;;;4851782;29;20257;-86
2022/10/20 04:41:32;;;;;;;13.77;11.10;;;10.60;99.90;;;;;;4843403;29;20192;-86
2022/10/20 04:43:58;;;;;;;16.27;11.70;;;10.60;99.90;;;;;;4843762;29;20194;-87
2022/10/20 04:46:25;;;;;;;12.73;10.83;;;10.60;99.90;;;;;;4859459;29;20267;-86
2022/10/20 04:48:52;;;;;;;12.13;10.50;;;10.60;99.90;;;;;;4843772;29;20189;-86
2022/10/20 04:51:18;;;;;;;13.03;10.70;;;10.50;99.90;;;;;;4843815;29;20190;-86
2022/10/20 04:53:45;;;;;;;13.33;10.60;;;10.60;99.90;;;;;;4843859;29;20265;-86
2022/10/20 04:56:26;;;;;;;12.03;9.87;;;10.50;99.90;;;;;;4867215;29;20185;-86
2022/10/20 04:58:55;;;;;;;13.80;10.63;;;10.50;99.90;;;;;;4857870;29;20203;-87
2022/10/20 05:01:27;;;;;;;11.20;9.33;;;10.50;99.90;;;;;;4861109;29;20274;-86
2022/10/20 05:03:53;;;;;;;10.80;9.20;;;10.50;99.90;;;;;;4861916;29;20202;-86
2022/10/20 05:06:28;;;;;;;10.73;9.50;;;10.50;99.90;;;;;;4862272;29;20196;-86
2022/10/20 05:08:57;;;;;;;10.53;9.43;;;10.40;99.90;;;;;;4861868;29;20219;-86
2022/10/20 05:11:24;;;;;;;11.67;9.73;;;10.40;99.90;;;;;;4862330;29;20264;-87
2022/10/20 05:13:50;;;;;;;10.80;9.67;;;10.40;99.90;;;;;;4861847;29;20209;-86
2022/10/20 05:16:17;;;;;;;11.60;10.17;;;10.40;99.90;;;;;;4861923;29;20189;-87
2022/10/20 05:18:44;;;;;;;12.43;10.27;;;10.40;99.90;;;;;;4861818;29;20201;-86
2022/10/20 05:21:12;;;;;;;11.57;9.67;;;10.30;99.90;;;;;;4861682;29;20211;-87
2022/10/20 05:23:39;;;;;;;12.47;10.70;;;10.30;99.90;;;;;;4861555;29;20209;-86
2022/10/20 05:26:08;;;;;;;11.97;9.80;;;10.30;99.90;;;;;;4846228;29;20269;-86
2022/10/20 05:28:34;;;;;;;11.50;10.30;;;10.20;99.90;;;;;;4861760;29;20272;-86
2022/10/20 05:31:02;;;;;;;11.73;10.53;;;10.30;99.90;;;;;;4846499;29;20275;-87
2022/10/20 05:33:28;;;;;;;12.80;10.50;;;10.30;99.90;;;;;;4845905;29;20220;-86
2022/10/20 05:35:54;;;;;;;11.00;9.80;;;10.30;99.90;;;;;;4862629;29;20215;-83
2022/10/20 05:38:22;;;;;;;10.47;9.37;;;10.30;99.90;;;;;;4854358;29;20284;-86
2022/10/20 05:40:48;;;;;;;11.60;9.27;;;10.30;99.90;;;;;;4841696;29;20300;-86
2022/10/20 05:43:14;;;;;;;10.90;9.80;;;10.30;99.90;;;;;;4857065;29;20200;-80
2022/10/20 05:45:40;;;;;;;11.27;10.10;;;10.30;99.90;;;;;;4860901;29;20185;-86
2022/10/20 05:48:06;;;;;;;13.03;11.03;;;10.30;99.90;;;;;;4854426;29;20185;-87
2022/10/20 05:50:32;;;;;;;13.10;11.70;;;10.30;99.90;;;;;;4845312;29;20220;-86
2022/10/20 05:52:59;;;;;;;13.20;11.43;;;10.30;99.90;;;;;;4842532;29;20218;-86
2022/10/20 05:55:25;;;;;;;11.67;10.47;;;10.30;99.90;;;;;;4845336;29;20217;-86
2022/10/20 05:57:51;;;;;;;12.90;11.50;;;10.30;99.90;;;;;;4859848;29;20193;-86
2022/10/20 06:00:28;;;;;;;12.70;10.60;;;10.30;99.90;;;;;;4844932;29;20219;-86
2022/10/20 06:02:54;;;;;;;12.57;11.27;;;10.20;99.90;;;;;;4845264;29;20234;-86
2022/10/20 06:05:19;;;;;;;12.20;11.00;;;10.20;99.90;;;;;;4842749;29;20194;-86
2022/10/20 06:07:45;;;;;;;12.03;10.73;;;10.20;99.90;;;;;;4857921;29;20188;-87
2022/10/20 06:10:11;;;;;;;13.57;11.47;;;10.10;99.90;;;;;;4845548;29;20193;-87
2022/10/20 06:12:37;;;;;;;15.50;12.50;;;10.20;99.90;;;;;;4844375;29;20201;-86
2022/10/20 06:15:03;;;;;;;13.13;11.30;;;10.10;99.90;;;;;;4860112;29;20187;-86
2022/10/20 06:17:29;;;;;;;13.73;11.23;;;10.10;99.90;;;;;;4844137;29;20288;-86
2022/10/20 06:19:55;;;;;;;12.03;10.73;;;10.20;99.90;;;;;;4844875;29;20216;-84
2022/10/20 06:22:21;;;;;;;20.07;11.73;;;10.10;99.90;;;;;;4848526;29;20211;-86
2022/10/20 06:24:47;;;;;;;11.70;10.40;;;10.10;99.90;;;;;;4839392;29;20197;-87
2022/10/20 06:27:13;;;;;;;11.87;10.20;;;10.10;99.90;;;;;;4843754;29;20250;-86
2022/10/20 06:29:39;;;;;;;11.43;10.23;;;10.10;99.90;;;;;;4845639;29;20245;-87
2022/10/20 06:32:05;;;;;;;11.07;9.70;;;10.10;99.90;;;;;;4843318;29;20212;-86
2022/10/20 06:34:31;;;;;;;9.23;8.33;;;10.10;99.90;;;;;;4851926;29;20299;-86
2022/10/20 06:36:57;;;;;;;9.77;8.07;;;10.20;99.90;;;;;;4858170;29;20288;-86
2022/10/20 06:39:24;;;;;;;8.57;7.77;;;10.20;99.90;;;;;;4843749;29;20193;-86
2022/10/20 06:41:52;;;;;;;9.33;8.33;;;10.30;99.90;;;;;;4859401;29;20205;-86
2022/10/20 06:44:20;;;;;;;9.83;8.83;;;10.30;99.90;;;;;;4860128;29;20192;-86
2022/10/20 06:46:55;;;;;;;12.57;9.37;;;10.30;99.90;;;;;;4859975;29;20188;-86
2022/10/20 06:49:22;;;;;;;10.73;9.20;;;10.40;99.90;;;;;;4844310;29;20191;-85
2022/10/20 06:51:48;;;;;;;10.57;9.20;;;10.50;99.90;;;;;;4834291;29;20197;-86
2022/10/20 06:54:14;;;;;;;9.93;8.80;;;10.50;99.90;;;;;;4854509;29;20208;-86
2022/10/20 06:56:40;;;;;;;11.00;8.90;;;10.60;99.90;;;;;;4843323;29;20211;-86
2022/10/20 06:59:06;;;;;;;11.80;9.37;;;10.60;99.90;;;;;;4860136;29;20246;-86
2022/10/20 07:01:38;;;;;;;9.73;8.80;;;10.60;99.90;;;;;;4856595;29;20211;-86
2022/10/20 07:04:08;;;;;;;10.93;9.83;;;10.60;99.90;;;;;;4831408;29;20189;-86
2022/10/20 07:06:38;;;;;;;9.87;8.87;;;10.60;99.90;;;;;;4844294;29;20187;-85
2022/10/20 07:09:08;;;;;;;12.27;9.33;;;10.60;99.90;;;;;;4859760;29;20207;-86
2022/10/20 07:11:34;;;;;;;11.27;9.77;;;10.60;99.90;;;;;;4859627;29;20667;-85
2022/10/20 07:14:01;;;;;;;10.93;9.50;;;10.60;99.90;;;;;;4843791;29;20284;-86
2022/10/20 07:16:30;;;;;;;10.97;9.80;;;10.70;99.90;;;;;;4844332;29;20182;-86
2022/10/20 07:18:59;;;;;;;10.97;8.90;;;10.80;99.90;;;;;;4844019;29;20194;-86
2022/10/20 07:21:30;;;;;;;9.73;8.73;;;10.90;99.90;;;;;;4858945;29;20209;-86
2022/10/20 07:24:00;;;;;;;10.97;9.77;;;11.00;99.90;;;;;;4859250;29;20230;-86
2022/10/20 07:26:29;;;;;;;12.57;9.13;;;11.00;99.90;;;;;;4873841;29;20186;-86
2022/10/20 07:29:05;;;;;;;12.07;9.20;;;11.10;99.90;;;;;;4864953;29;20180;-86
2022/10/20 07:31:41;;;;;;;9.67;8.47;;;11.20;99.90;;;;;;4860019;29;20195;-87
2022/10/20 07:34:09;;;;;;;10.37;9.30;;;11.30;99.90;;;;;;4850716;29;20269;-86
2022/10/20 07:36:42;;;;;;;11.97;8.50;;;11.40;99.90;;;;;;4838195;29;20207;-86
2022/10/20 07:39:12;;;;;;;11.23;8.60;;;11.60;99.90;;;;;;4858795;29;20188;-86
2022/10/20 07:41:44;;;;;;;10.87;8.07;;;11.70;99.90;;;;;;4859281;29;20249;-86
2022/10/20 07:44:10;;;;;;;12.47;8.20;;;11.70;99.90;;;;;;4874889;29;20180;-86
2022/10/20 07:46:36;;;;;;;10.23;8.27;;;11.80;99.90;;;;;;4859410;29;20193;-86
2022/10/20 07:49:03;;;;;;;11.30;8.23;;;11.80;99.90;;;;;;4859680;29;20190;-86
2022/10/20 07:51:31;;;;;;;11.20;8.60;;;11.80;99.90;;;;;;4859466;29;20273;-86
2022/10/20 07:54:02;;;;;;;11.20;8.73;;;11.90;99.90;;;;;;4892924;29;20194;-86
2022/10/20 07:56:32;;;;;;;11.97;7.97;;;12.00;99.90;;;;;;4863836;29;20208;-87
2022/10/20 07:58:58;;;;;;;12.00;8.40;;;12.10;99.90;;;;;;4840570;29;20197;-86
2022/10/20 08:01:28;;;;;;;10.97;8.30;;;12.20;99.90;;;;;;4825636;29;20268;-86
2022/10/20 08:03:57;;;;;;;12.97;9.50;;;12.30;99.90;;;;;;4858590;29;20305;-86
2022/10/20 08:06:24;;;;;;;12.33;8.60;;;12.30;99.90;;;;;;4859155;29;20334;-86
2022/10/20 08:08:59;;;;;;;11.27;9.67;;;12.40;99.90;;;;;;4858390;29;20203;-86
2022/10/20 08:11:26;;;;;;;12.50;10.10;;;12.50;99.90;;;;;;4859288;29;20262;-86
2022/10/20 08:13:52;;;;;;;11.33;9.90;;;12.60;99.90;;;;;;4843474;29;20231;-86
2022/10/20 08:16:18;;;;;;;12.77;10.57;;;12.70;99.90;;;;;;4860162;29;20209;-86
2022/10/20 08:18:49;;;;;;;12.67;10.80;;;12.80;99.90;;;;;;4842719;29;20187;-87
2022/10/20 08:21:18;;;;;;;11.33;10.13;;;12.80;99.90;;;;;;4843516;29;20212;-86
2022/10/20 08:23:48;;;;;;;13.30;11.53;;;12.80;99.90;;;;;;4858556;29;20232;-86
2022/10/20 08:26:20;;;;;;;13.57;11.20;;;13.00;99.90;;;;;;4866370;29;20220;-87
2022/10/20 08:28:53;;;;;;;15.53;11.47;;;13.10;99.90;;;;;;4845719;29;20189;-86
2022/10/20 08:31:22;;;;;;;12.87;10.07;;;13.20;99.90;;;;;;4843791;29;20191;-86
2022/10/20 08:33:48;;;;;;;11.30;9.73;;;13.40;99.90;;;;;;4842677;29;20690;-86
2022/10/20 08:36:15;;;;;;;12.73;10.27;;;13.60;99.90;;;;;;4841182;29;20195;-87
2022/10/20 08:38:42;;;;;;;13.97;10.30;;;13.60;99.90;;;;;;4845734;29;20189;-87
2022/10/20 08:41:33;;;;;;;13.10;9.80;;;13.70;99.90;;;;;;4877719;29;20220;-87
2022/10/20 08:44:02;;;;;;;13.70;8.23;;;13.80;99.90;;;;;;4862061;29;20189;-86
2022/10/20 08:46:34;;;;;;;12.13;9.50;;;13.80;99.90;;;;;;4861986;29;20177;-87
2022/10/20 08:49:02;;;;;;;12.00;8.50;;;13.90;99.90;;;;;;4862223;29;20173;-87
2022/10/20 08:51:33;;;;;;;11.83;8.57;;;13.90;99.90;;;;;;4846762;29;20185;-87
2022/10/20 08:54:01;;;;;;;11.83;8.83;;;14.00;99.90;;;;;;4861953;29;20177;-87
2022/10/20 08:56:29;;;;;;;10.07;8.20;;;14.10;99.90;;;;;;4861329;29;20189;-87
2022/10/20 08:58:56;;;;;;;11.80;10.00;;;14.20;99.90;;;;;;4861929;29;20184;-87
2022/10/20 09:01:33;;;;;;;10.93;9.83;;;14.30;99.90;;;;;;4846703;29;20247;-87
2022/10/20 09:04:11;;;;;;;11.77;10.00;;;14.40;99.90;;;;;;4861756;29;20229;-87
2022/10/20 09:06:39;;;;;;;12.40;10.27;;;14.50;99.90;;;;;;4846539;29;20189;-87
2022/10/20 09:09:04;;;;;;;12.77;10.13;;;14.60;99.90;;;;;;4836057;29;20201;-87
2022/10/20 09:11:39;;;;;;;12.30;10.70;;;14.80;99.90;;;;;;4827983;29;20189;-87
2022/10/20 09:14:09;;;;;;;11.67;10.43;;;14.90;99.90;;;;;;4854329;29;20188;-87
2022/10/20 09:16:39;;;;;;;10.47;8.83;;;15.00;99.90;;;;;;4845898;29;20189;-87
2022/10/20 09:19:21;;;;;;;13.63;10.37;;;15.10;99.90;;;;;;4860320;29;20216;-87
2022/10/20 09:21:56;;;;;;;12.40;9.53;;;15.30;99.90;;;;;;4860694;29;20295;-87
2022/10/20 09:24:31;;;;;;;10.30;9.20;;;15.30;99.90;;;;;;4861395;29;20185;-87
2022/10/20 09:30:36;;;;;;;9.47;8.43;;;15.30;99.90;;;;;;4860790;29;20203;-87
2022/10/20 09:33:19;;;;;;;10.83;9.17;;;15.30;99.90;;;;;;4845355;29;20289;-87
2022/10/20 09:35:47;;;;;;;9.40;8.40;;;15.30;99.90;;;;;;4876555;29;20185;-86
2022/10/20 09:38:28;;;;;;;11.00;8.83;;;15.30;99.90;;;;;;4861063;29;20272;-87
2022/10/20 09:41:01;;;;;;;11.00;8.60;;;15.30;99.90;;;;;;4861138;29;20216;-87
2022/10/20 09:43:27;;;;;;;9.97;8.27;;;15.30;99.90;;;;;;4860811;29;20204;-87
2022/10/20 09:45:58;;;;;;;9.87;8.30;;;15.40;99.90;;;;;;4860845;29;20189;-87
2022/10/20 09:48:54;;;;;;;10.37;8.33;;;15.40;99.90;;;;;;4860805;29;20188;-87
2022/10/20 09:51:28;;;;;;;9.93;8.93;;;15.50;99.90;;;;;;4857236;29;20233;-87
2022/10/20 09:54:06;;;;;;;11.50;9.23;;;15.60;99.90;;;;;;4861154;29;20242;-87
2022/10/20 09:56:34;;;;;;;14.23;9.80;;;15.80;99.90;;;;;;4860799;29;20591;-87
2022/10/20 09:59:05;;;;;;;12.83;9.17;;;15.90;99.90;;;;;;4860614;29;20199;-87
2022/10/20 10:01:30;;;;;;;10.33;7.90;;;16.00;99.90;;;;;;4860565;29;20240;-87
2022/10/20 10:04:00;;;;;;;12.10;9.10;;;16.10;99.90;;;;;;4860825;29;20219;-87
2022/10/20 10:06:42;;;;;;;10.47;8.27;;;16.20;99.90;;;;;;4860826;29;20595;-87
2022/10/20 10:09:23;;;;;;;11.03;8.70;;;16.20;99.90;;;;;;4860686;29;20185;-87
2022/10/20 10:11:58;;;;;;;9.43;8.43;;;16.30;99.90;;;;;;4860577;29;20355;-87
2022/10/20 10:14:24;;;;;;;8.93;7.47;;;16.40;99.90;;;;;;4860587;29;20179;-87
2022/10/20 10:16:50;;;;;;;7.87;7.13;;;16.50;99.90;;;;;;4860405;29;20249;-83
2022/10/20 10:19:19;;;;;;;11.75;8.77;;;16.50;99.90;;;;;;4860664;29;20188;-87
2022/10/20 10:21:57;;;;;;;10.10;8.38;;;16.60;99.90;;;;;;4860374;29;20207;-87
2022/10/20 10:24:47;;;;;;;9.10;7.22;;;16.60;99.90;;;;;;4860404;29;20192;-87
2022/10/20 10:27:22;;;;;;;9.43;7.43;;;16.60;99.90;;;;;;4860252;29;20181;-87
2022/10/20 10:29:48;;;;;;;9.10;7.07;;;16.60;99.90;;;;;;4860601;29;20188;-87
2022/10/20 10:32:23;;;;;;;8.60;6.97;;;16.60;99.90;;;;;;4860050;29;20212;-87
2022/10/20 10:35:13;;;;;;;6.85;6.03;;;16.50;99.90;;;;;;4859708;29;20199;-87
2022/10/20 10:37:42;;;;;;;9.00;7.38;;;16.50;99.90;;;;;;4860272;29;20210;-87
2022/10/20 10:40:24;;;;;;;8.38;6.75;;;16.50;99.90;;;;;;4842026;29;20220;-87
2022/10/20 10:43:11;;;;;;;8.00;6.57;;;16.50;99.90;;;;;;4826536;29;20209;-87
2022/10/20 10:45:59;;;;;;;7.50;6.22;;;16.50;99.90;;;;;;4857417;29;20178;-86
2022/10/20 10:48:44;;;;;;;7.35;6.15;;;16.50;99.90;;;;;;4857343;29;20216;-88
2022/10/20 10:51:34;;;;;;;6.40;5.80;;;16.60;99.90;;;;;;4842844;29;20207;-87
2022/10/20 10:54:29;;;;;;;6.40;5.80;;;16.60;99.90;;;;;;4857238;29;20237;-87
2022/10/20 10:57:19;;;;;;;5.50;5.00;;;16.60;99.90;;;;;;4826191;29;20189;-87
2022/10/20 10:59:48;;;;;;;7.20;5.43;;;16.60;99.90;;;;;;4841543;29;20207;-87
2022/10/20 11:02:52;;;;;;;6.97;4.68;;;16.70;99.90;;;;;;4841301;29;20240;-87
2022/10/20 11:05:26;;;;;;;7.00;4.90;;;16.70;99.90;;;;;;4856874;29;20189;-87
2022/10/20 11:08:19;;;;;;;7.38;5.35;;;16.80;99.90;;;;;;4856978;29;20666;-87
2022/10/20 11:11:11;;;;;;;6.45;5.80;;;16.80;99.90;;;;;;4865711;29;20181;-87
2022/10/20 11:13:50;;;;;;;8.23;5.68;;;16.80;99.90;;;;;;4847498;29;20289;-87
2022/10/20 11:17:04;;;;;;;5.93;5.22;;;16.80;99.90;;;;;;4872424;29;20173;-87
2022/10/20 11:19:51;;;;;;;6.20;5.18;;;16.80;99.90;;;;;;4841464;29;20212;-87
2022/10/20 11:22:36;;;;;;;5.20;4.70;;;16.90;99.90;;;;;;4872182;29;20205;-87
2022/10/20 11:25:32;;;;;;;7.72;5.30;;;16.90;99.90;;;;;;4841451;29;20170;-87
2022/10/20 11:27:59;;;;;;;6.18;5.40;;;17.00;99.90;;;;;;4841252;29;20174;-87
2022/10/20 11:30:39;;;;;;;6.40;5.75;;;17.10;99.90;;;;;;4841322;29;20272;-87
2022/10/20 11:33:15;;;;;;;6.05;5.50;;;17.20;99.90;;;;;;4841444;29;20232;-87
2022/10/20 11:35:43;;;;;;;7.63;6.05;;;17.20;99.90;;;;;;4840968;29;20189;-87
2022/10/20 11:38:31;;;;;;;7.10;5.75;;;17.30;99.90;;;;;;4871877;29;20231;-88
2022/10/20 11:41:29;;;;;;;6.78;6.03;;;17.30;99.90;;;;;;4841168;29;20686;-88
2022/10/20 11:44:14;;;;;;;7.63;6.15;;;17.20;99.90;;;;;;4841600;29;20177;-87
2022/10/20 11:47:02;;;;;;;5.80;5.25;;;17.10;99.90;;;;;;4856592;29;20166;-88
2022/10/20 11:49:31;;;;;;;7.45;5.43;;;17.10;99.90;;;;;;4841141;29;20165;-88
2022/10/20 11:52:06;;;;;;;5.80;5.25;;;17.20;99.90;;;;;;4848484;29;20197;-87
2022/10/20 11:54:55;;;;;;;6.82;6.13;;;17.20;99.90;;;;;;4859571;29;20180;-87
2022/10/20 11:57:54;;;;;;;7.53;6.72;;;17.20;99.90;;;;;;4843727;29;20258;-87
2022/10/20 12:00:26;;;;;;;7.30;6.60;;;17.20;99.90;;;;;;4859612;29;20219;-87
2022/10/20 12:03:11;;;;;;;10.82;6.80;;;17.20;99.90;;;;;;4859548;29;20212;-87
2022/10/20 12:06:01;;;;;;;8.45;5.80;;;17.30;99.90;;;;;;4859509;29;20185;-87
2022/10/20 12:08:27;;;;;;;7.93;7.13;;;17.40;99.90;;;;;;4853927;29;20196;-88
2022/10/20 12:11:12;;;;;;;9.43;7.20;;;17.50;99.90;;;;;;4853354;29;20244;-87
2022/10/20 12:13:47;;;;;;;8.23;7.43;;;17.40;99.90;;;;;;4862749;29;20247;-87
2022/10/20 12:16:57;;;;;;;10.07;7.28;;;17.30;99.90;;;;;;4864622;29;20189;-87
2022/10/20 12:19:31;;;;;;;8.60;6.68;;;17.20;99.90;;;;;;4870294;29;20181;-88
2022/10/20 12:22:26;;;;;;;7.90;7.10;;;17.20;99.90;;;;;;4862827;29;20201;-87
2022/10/20 12:24:51;;;;;;;8.48;6.50;;;17.20;99.90;;;;;;4844547;29;20186;-87
2022/10/20 12:27:18;;;;;;;7.78;6.57;;;17.20;99.90;;;;;;4862548;29;20245;-87
2022/10/20 12:29:49;;;;;;;6.30;5.70;;;17.20;99.90;;;;;;4863183;29;20189;-87
2022/10/20 12:32:24;;;;;;;6.95;5.90;;;17.20;99.90;;;;;;4877916;29;20208;-87
2022/10/20 12:35:17;;;;;;;8.43;6.57;;;17.20;99.90;;;;;;4860619;29;20274;-87
2022/10/20 12:37:54;;;;;;;8.30;6.15;;;17.20;99.90;;;;;;4842886;29;20225;-87
2022/10/20 12:40:24;;;;;;;7.00;5.50;;;17.20;99.90;;;;;;4845259;29;20295;-87
2022/10/20 12:42:54;;;;;;;8.80;7.22;;;17.20;99.90;;;;;;4846117;29;20208;-87
2022/10/20 12:45:28;;;;;;;7.80;6.47;;;17.20;99.90;;;;;;4847031;29;20188;-87
2022/10/20 12:47:58;;;;;;;7.43;6.43;;;17.20;99.90;;;;;;4846485;29;20186;-87
2022/10/20 12:50:40;;;;;;;8.77;6.55;;;17.30;99.90;;;;;;4861791;29;20248;-88
2022/10/20 12:53:22;;;;;;;6.63;5.53;;;17.30;99.90;;;;;;4861945;29;20339;-87
2022/10/20 12:56:10;;;;;;;5.90;5.18;;;17.40;99.90;;;;;;4846342;29;20180;-88
2022/10/20 12:58:38;;;;;;;9.18;5.80;;;17.50;99.90;;;;;;4861695;29;20188;-88
2022/10/20 13:01:10;;;;;;;6.90;5.25;;;17.50;99.90;;;;;;4862233;29;20216;-88